sensor_id;sensor_type;location;lat;lon;timestamp;P1;durP1;ratioP1;P2;durP2;ratioP2
21677;SDS011;11000;50.360;7.582;2022-11-13T00:02:02;12.03;;;8.70;;
21677;SDS011;11000;50.360;7.582;2022-11-13T00:04:22;11.27;;;9.20;;
21677;SDS011;11000;50.360;7.582;2022-11-13T00:06:43;14.10;;;9.93;;
21677;SDS011;11000;50.360;7.582;2022-11-13T00:09:04;12.07;;;9.30;;
21677;SDS011;11000;50.360;7.582;2022-11-13T00:11:24;13.13;;;9.87;;
21677;SDS011;11000;50.360;7.582;2022-11-13T00:13:45;14.13;;;10.07;;
21677;SDS011;11000;50.360;7.582;2022-11-13T00:16:08;16.43;;;10.93;;
21677;SDS011;11000;50.360;7.582;2022-11-13T00:18:32;14.77;;;10.17;;
21677;SDS011;11000;50.360;7.582;2022-11-13T00:20:53;13.87;;;10.27;;
21677;SDS011;11000;50.360;7.582;2022-11-13T00:23:15;15.70;;;11.10;;
21677;SDS011;11000;50.360;7.582;2022-11-13T00:25:35;13.33;;;9.80;;
21677;SDS011;11000;50.360;7.582;2022-11-13T00:27:56;16.17;;;11.07;;
21677;SDS011;11000;50.360;7.582;2022-11-13T00:30:16;15.03;;;11.03;;
21677;SDS011;11000;50.360;7.582;2022-11-13T00:32:37;17.80;;;12.00;;
21677;SDS011;11000;50.360;7.582;2022-11-13T00:34:59;16.90;;;11.83;;
21677;SDS011;11000;50.360;7.582;2022-11-13T00:37:19;16.10;;;11.70;;
21677;SDS011;11000;50.360;7.582;2022-11-13T00:39:40;17.37;;;11.90;;
21677;SDS011;11000;50.360;7.582;2022-11-13T00:42:00;15.47;;;11.33;;
21677;SDS011;11000;50.360;7.582;2022-11-13T00:44:20;17.73;;;11.57;;
21677;SDS011;11000;50.360;7.582;2022-11-13T00:46:41;15.90;;;11.60;;
21677;SDS011;11000;50.360;7.582;2022-11-13T00:49:02;17.63;;;10.60;;
21677;SDS011;11000;50.360;7.582;2022-11-13T00:51:22;18.73;;;12.73;;
21677;SDS011;11000;50.360;7.582;2022-11-13T00:53:43;15.87;;;10.93;;
21677;SDS011;11000;50.360;7.582;2022-11-13T00:56:03;16.33;;;11.23;;
21677;SDS011;11000;50.360;7.582;2022-11-13T00:58:24;17.63;;;11.17;;
21677;SDS011;11000;50.360;7.582;2022-11-13T01:00:46;15.77;;;11.37;;
21677;SDS011;11000;50.360;7.582;2022-11-13T01:03:07;16.53;;;11.60;;
21677;SDS011;11000;50.360;7.582;2022-11-13T01:05:27;18.60;;;12.10;;
21677;SDS011;11000;50.360;7.582;2022-11-13T01:07:48;19.53;;;12.17;;
21677;SDS011;11000;50.360;7.582;2022-11-13T01:10:09;19.00;;;12.77;;
21677;SDS011;11000;50.360;7.582;2022-11-13T01:12:29;21.37;;;13.23;;
21677;SDS011;11000;50.360;7.582;2022-11-13T01:14:50;19.87;;;13.33;;
21677;SDS011;11000;50.360;7.582;2022-11-13T01:17:11;19.07;;;13.03;;
21677;SDS011;11000;50.360;7.582;2022-11-13T01:19:31;22.10;;;13.07;;
21677;SDS011;11000;50.360;7.582;2022-11-13T01:21:52;19.17;;;12.63;;
21677;SDS011;11000;50.360;7.582;2022-11-13T01:24:12;19.97;;;12.87;;
21677;SDS011;11000;50.360;7.582;2022-11-13T01:26:33;23.30;;;13.90;;
21677;SDS011;11000;50.360;7.582;2022-11-13T01:28:54;20.40;;;13.63;;
21677;SDS011;11000;50.360;7.582;2022-11-13T01:31:17;21.47;;;13.33;;
21677;SDS011;11000;50.360;7.582;2022-11-13T01:33:40;20.50;;;12.20;;
21677;SDS011;11000;50.360;7.582;2022-11-13T01:36:05;22.50;;;13.30;;
21677;SDS011;11000;50.360;7.582;2022-11-13T01:38:27;19.97;;;12.07;;
21677;SDS011;11000;50.360;7.582;2022-11-13T01:40:48;22.83;;;13.73;;
21677;SDS011;11000;50.360;7.582;2022-11-13T01:43:19;19.40;;;12.40;;
21677;SDS011;11000;50.360;7.582;2022-11-13T01:46:01;21.47;;;13.17;;
21677;SDS011;11000;50.360;7.582;2022-11-13T01:48:31;21.70;;;12.40;;
21677;SDS011;11000;50.360;7.582;2022-11-13T01:50:57;21.93;;;13.60;;
21677;SDS011;11000;50.360;7.582;2022-11-13T01:53:18;22.17;;;13.57;;
21677;SDS011;11000;50.360;7.582;2022-11-13T01:55:39;28.13;;;13.30;;
21677;SDS011;11000;50.360;7.582;2022-11-13T01:58:00;22.37;;;12.80;;
21677;SDS011;11000;50.360;7.582;2022-11-13T02:00:23;26.57;;;13.77;;
21677;SDS011;11000;50.360;7.582;2022-11-13T02:02:43;27.83;;;13.87;;
21677;SDS011;11000;50.360;7.582;2022-11-13T02:05:03;26.03;;;13.10;;
21677;SDS011;11000;50.360;7.582;2022-11-13T02:07:27;25.53;;;13.17;;
21677;SDS011;11000;50.360;7.582;2022-11-13T02:09:49;25.00;;;12.97;;
21677;SDS011;11000;50.360;7.582;2022-11-13T02:12:15;33.23;;;12.87;;
21677;SDS011;11000;50.360;7.582;2022-11-13T02:14:48;20.50;;;13.20;;
21677;SDS011;11000;50.360;7.582;2022-11-13T02:17:17;22.73;;;13.13;;
21677;SDS011;11000;50.360;7.582;2022-11-13T02:19:44;22.43;;;12.53;;
21677;SDS011;11000;50.360;7.582;2022-11-13T02:22:16;19.77;;;12.60;;
21677;SDS011;11000;50.360;7.582;2022-11-13T02:24:44;21.17;;;13.33;;
21677;SDS011;11000;50.360;7.582;2022-11-13T02:27:07;23.50;;;13.63;;
21677;SDS011;11000;50.360;7.582;2022-11-13T02:29:32;20.67;;;13.13;;
21677;SDS011;11000;50.360;7.582;2022-11-13T02:31:52;22.87;;;11.73;;
21677;SDS011;11000;50.360;7.582;2022-11-13T02:34:13;23.47;;;12.90;;
21677;SDS011;11000;50.360;7.582;2022-11-13T02:36:33;24.33;;;12.47;;
21677;SDS011;11000;50.360;7.582;2022-11-13T02:38:55;30.73;;;13.87;;
21677;SDS011;11000;50.360;7.582;2022-11-13T02:41:19;26.60;;;13.40;;
21677;SDS011;11000;50.360;7.582;2022-11-13T02:43:40;31.97;;;13.00;;
21677;SDS011;11000;50.360;7.582;2022-11-13T02:46:00;20.40;;;12.63;;
21677;SDS011;11000;50.360;7.582;2022-11-13T02:48:21;23.20;;;14.00;;
21677;SDS011;11000;50.360;7.582;2022-11-13T02:50:42;25.27;;;13.30;;
21677;SDS011;11000;50.360;7.582;2022-11-13T02:53:03;19.00;;;12.03;;
21677;SDS011;11000;50.360;7.582;2022-11-13T02:55:24;19.03;;;10.83;;
21677;SDS011;11000;50.360;7.582;2022-11-13T02:57:44;17.17;;;11.07;;
21677;SDS011;11000;50.360;7.582;2022-11-13T03:00:05;17.80;;;10.73;;
21677;SDS011;11000;50.360;7.582;2022-11-13T03:02:26;23.63;;;11.33;;
21677;SDS011;11000;50.360;7.582;2022-11-13T03:04:47;18.80;;;11.43;;
21677;SDS011;11000;50.360;7.582;2022-11-13T03:07:07;15.40;;;10.33;;
21677;SDS011;11000;50.360;7.582;2022-11-13T03:09:28;15.70;;;10.10;;
21677;SDS011;11000;50.360;7.582;2022-11-13T03:11:48;13.90;;;9.97;;
21677;SDS011;11000;50.360;7.582;2022-11-13T03:14:09;18.00;;;10.73;;
21677;SDS011;11000;50.360;7.582;2022-11-13T03:16:30;14.80;;;9.30;;
21677;SDS011;11000;50.360;7.582;2022-11-13T03:18:50;13.90;;;9.70;;
21677;SDS011;11000;50.360;7.582;2022-11-13T03:21:11;13.57;;;9.20;;
21677;SDS011;11000;50.360;7.582;2022-11-13T03:23:33;11.67;;;8.73;;
21677;SDS011;11000;50.360;7.582;2022-11-13T03:25:54;14.70;;;9.87;;
21677;SDS011;11000;50.360;7.582;2022-11-13T03:28:15;12.10;;;8.97;;
21677;SDS011;11000;50.360;7.582;2022-11-13T03:30:35;12.13;;;8.40;;
21677;SDS011;11000;50.360;7.582;2022-11-13T03:32:56;13.67;;;8.47;;
21677;SDS011;11000;50.360;7.582;2022-11-13T03:35:17;11.67;;;9.13;;
21677;SDS011;11000;50.360;7.582;2022-11-13T03:37:37;15.07;;;8.97;;
21677;SDS011;11000;50.360;7.582;2022-11-13T03:39:58;13.00;;;8.40;;
21677;SDS011;11000;50.360;7.582;2022-11-13T03:42:18;13.63;;;9.63;;
21677;SDS011;11000;50.360;7.582;2022-11-13T03:44:39;11.87;;;8.57;;
21677;SDS011;11000;50.360;7.582;2022-11-13T03:46:59;12.27;;;8.40;;
21677;SDS011;11000;50.360;7.582;2022-11-13T03:49:20;15.87;;;8.77;;
21677;SDS011;11000;50.360;7.582;2022-11-13T03:51:41;12.73;;;8.77;;
21677;SDS011;11000;50.360;7.582;2022-11-13T03:54:01;14.37;;;9.37;;
21677;SDS011;11000;50.360;7.582;2022-11-13T03:56:22;11.97;;;7.97;;
21677;SDS011;11000;50.360;7.582;2022-11-13T03:58:43;20.43;;;9.27;;
21677;SDS011;11000;50.360;7.582;2022-11-13T04:01:03;11.93;;;8.97;;
21677;SDS011;11000;50.360;7.582;2022-11-13T04:03:24;15.97;;;9.40;;
21677;SDS011;11000;50.360;7.582;2022-11-13T04:05:46;15.10;;;9.73;;
21677;SDS011;11000;50.360;7.582;2022-11-13T04:08:07;12.37;;;9.17;;
21677;SDS011;11000;50.360;7.582;2022-11-13T04:10:27;12.07;;;8.87;;
21677;SDS011;11000;50.360;7.582;2022-11-13T04:12:48;15.23;;;9.33;;
21677;SDS011;11000;50.360;7.582;2022-11-13T04:15:09;11.53;;;8.90;;
21677;SDS011;11000;50.360;7.582;2022-11-13T04:17:30;11.50;;;8.83;;
21677;SDS011;11000;50.360;7.582;2022-11-13T04:19:50;12.10;;;8.73;;
21677;SDS011;11000;50.360;7.582;2022-11-13T04:22:11;11.97;;;9.03;;
21677;SDS011;11000;50.360;7.582;2022-11-13T04:24:32;11.57;;;8.50;;
21677;SDS011;11000;50.360;7.582;2022-11-13T04:26:52;11.60;;;8.40;;
21677;SDS011;11000;50.360;7.582;2022-11-13T04:29:13;14.20;;;8.67;;
21677;SDS011;11000;50.360;7.582;2022-11-13T04:31:34;11.63;;;8.57;;
21677;SDS011;11000;50.360;7.582;2022-11-13T04:33:54;12.47;;;8.73;;
21677;SDS011;11000;50.360;7.582;2022-11-13T04:36:15;11.83;;;8.70;;
21677;SDS011;11000;50.360;7.582;2022-11-13T04:38:35;10.47;;;8.20;;
21677;SDS011;11000;50.360;7.582;2022-11-13T04:40:56;12.10;;;8.57;;
21677;SDS011;11000;50.360;7.582;2022-11-13T04:43:35;8.90;;;7.53;;
21677;SDS011;11000;50.360;7.582;2022-11-13T04:45:56;10.60;;;7.87;;
21677;SDS011;11000;50.360;7.582;2022-11-13T04:48:16;10.33;;;7.70;;
21677;SDS011;11000;50.360;7.582;2022-11-13T04:50:37;9.90;;;7.67;;
21677;SDS011;11000;50.360;7.582;2022-11-13T04:52:57;11.40;;;7.90;;
21677;SDS011;11000;50.360;7.582;2022-11-13T04:55:18;9.60;;;7.83;;
21677;SDS011;11000;50.360;7.582;2022-11-13T04:57:38;10.83;;;7.80;;
21677;SDS011;11000;50.360;7.582;2022-11-13T04:59:59;11.27;;;7.90;;
21677;SDS011;11000;50.360;7.582;2022-11-13T05:02:20;11.30;;;7.97;;
21677;SDS011;11000;50.360;7.582;2022-11-13T05:04:41;11.27;;;7.90;;
21677;SDS011;11000;50.360;7.582;2022-11-13T05:07:02;10.87;;;8.07;;
21677;SDS011;11000;50.360;7.582;2022-11-13T05:09:22;14.23;;;8.70;;
21677;SDS011;11000;50.360;7.582;2022-11-13T05:11:43;13.70;;;8.47;;
21677;SDS011;11000;50.360;7.582;2022-11-13T05:14:03;11.63;;;9.10;;
21677;SDS011;11000;50.360;7.582;2022-11-13T05:16:24;10.63;;;8.17;;
21677;SDS011;11000;50.360;7.582;2022-11-13T05:18:45;11.83;;;8.80;;
21677;SDS011;11000;50.360;7.582;2022-11-13T05:21:06;14.43;;;7.30;;
21677;SDS011;11000;50.360;7.582;2022-11-13T05:23:28;9.47;;;7.17;;
21677;SDS011;11000;50.360;7.582;2022-11-13T05:25:50;13.63;;;8.47;;
21677;SDS011;11000;50.360;7.582;2022-11-13T05:28:10;11.00;;;8.53;;
21677;SDS011;11000;50.360;7.582;2022-11-13T05:30:31;12.70;;;8.27;;
21677;SDS011;11000;50.360;7.582;2022-11-13T05:32:51;13.17;;;8.17;;
21677;SDS011;11000;50.360;7.582;2022-11-13T05:35:12;11.87;;;9.00;;
21677;SDS011;11000;50.360;7.582;2022-11-13T05:37:32;12.60;;;9.07;;
21677;SDS011;11000;50.360;7.582;2022-11-13T05:39:53;12.87;;;8.00;;
21677;SDS011;11000;50.360;7.582;2022-11-13T05:42:13;13.10;;;8.77;;
21677;SDS011;11000;50.360;7.582;2022-11-13T05:44:34;16.40;;;9.23;;
21677;SDS011;11000;50.360;7.582;2022-11-13T05:46:54;12.07;;;8.63;;
21677;SDS011;11000;50.360;7.582;2022-11-13T05:49:15;13.17;;;9.30;;
21677;SDS011;11000;50.360;7.582;2022-11-13T05:51:35;14.37;;;9.07;;
21677;SDS011;11000;50.360;7.582;2022-11-13T05:53:56;15.17;;;9.37;;
21677;SDS011;11000;50.360;7.582;2022-11-13T05:56:19;12.67;;;8.57;;
21677;SDS011;11000;50.360;7.582;2022-11-13T05:58:44;12.20;;;8.37;;
21677;SDS011;11000;50.360;7.582;2022-11-13T06:03:36;11.93;;;9.03;;
21677;SDS011;11000;50.360;7.582;2022-11-13T06:05:57;12.93;;;9.20;;
21677;SDS011;11000;50.360;7.582;2022-11-13T06:08:18;13.70;;;9.50;;
21677;SDS011;11000;50.360;7.582;2022-11-13T06:10:38;26.43;;;9.27;;
21677;SDS011;11000;50.360;7.582;2022-11-13T06:12:59;14.97;;;8.80;;
21677;SDS011;11000;50.360;7.582;2022-11-13T06:15:19;21.87;;;9.27;;
21677;SDS011;11000;50.360;7.582;2022-11-13T06:17:43;15.00;;;8.77;;
21677;SDS011;11000;50.360;7.582;2022-11-13T06:20:04;17.97;;;9.43;;
21677;SDS011;11000;50.360;7.582;2022-11-13T06:22:26;29.97;;;9.30;;
21677;SDS011;11000;50.360;7.582;2022-11-13T06:24:47;16.57;;;8.73;;
21677;SDS011;11000;50.360;7.582;2022-11-13T06:27:07;15.73;;;9.10;;
21677;SDS011;11000;50.360;7.582;2022-11-13T06:29:28;13.10;;;9.67;;
21677;SDS011;11000;50.360;7.582;2022-11-13T06:31:49;29.87;;;9.17;;
21677;SDS011;11000;50.360;7.582;2022-11-13T06:34:09;24.43;;;9.43;;
21677;SDS011;11000;50.360;7.582;2022-11-13T06:36:31;14.80;;;9.33;;
21677;SDS011;11000;50.360;7.582;2022-11-13T06:38:53;12.10;;;8.80;;
21677;SDS011;11000;50.360;7.582;2022-11-13T06:41:14;23.13;;;10.03;;
21677;SDS011;11000;50.360;7.582;2022-11-13T06:43:36;14.27;;;9.57;;
21677;SDS011;11000;50.360;7.582;2022-11-13T06:45:57;14.00;;;9.43;;
21677;SDS011;11000;50.360;7.582;2022-11-13T06:48:18;14.10;;;9.17;;
21677;SDS011;11000;50.360;7.582;2022-11-13T06:50:38;17.43;;;9.30;;
21677;SDS011;11000;50.360;7.582;2022-11-13T06:52:59;22.40;;;10.27;;
21677;SDS011;11000;50.360;7.582;2022-11-13T06:55:19;31.13;;;9.90;;
21677;SDS011;11000;50.360;7.582;2022-11-13T06:57:40;15.13;;;9.97;;
21677;SDS011;11000;50.360;7.582;2022-11-13T07:00:00;17.47;;;9.73;;
21677;SDS011;11000;50.360;7.582;2022-11-13T07:02:21;43.27;;;10.17;;
21677;SDS011;11000;50.360;7.582;2022-11-13T07:04:41;26.47;;;10.13;;
21677;SDS011;11000;50.360;7.582;2022-11-13T07:07:02;25.23;;;9.67;;
21677;SDS011;11000;50.360;7.582;2022-11-13T07:09:23;17.20;;;9.27;;
21677;SDS011;11000;50.360;7.582;2022-11-13T07:11:43;16.73;;;9.07;;
21677;SDS011;11000;50.360;7.582;2022-11-13T07:14:04;13.83;;;9.30;;
21677;SDS011;11000;50.360;7.582;2022-11-13T07:16:24;21.87;;;9.17;;
21677;SDS011;11000;50.360;7.582;2022-11-13T07:18:49;20.83;;;9.03;;
21677;SDS011;11000;50.360;7.582;2022-11-13T07:21:13;16.83;;;8.77;;
21677;SDS011;11000;50.360;7.582;2022-11-13T07:23:34;10.17;;;8.10;;
21677;SDS011;11000;50.360;7.582;2022-11-13T07:25:58;19.77;;;8.90;;
21677;SDS011;11000;50.360;7.582;2022-11-13T07:28:19;15.93;;;8.70;;
21677;SDS011;11000;50.360;7.582;2022-11-13T07:30:40;14.13;;;8.93;;
21677;SDS011;11000;50.360;7.582;2022-11-13T07:33:01;14.13;;;9.20;;
21677;SDS011;11000;50.360;7.582;2022-11-13T07:35:23;13.33;;;9.07;;
21677;SDS011;11000;50.360;7.582;2022-11-13T07:37:43;22.00;;;9.33;;
21677;SDS011;11000;50.360;7.582;2022-11-13T07:40:04;15.07;;;9.37;;
21677;SDS011;11000;50.360;7.582;2022-11-13T07:42:25;34.70;;;9.00;;
21677;SDS011;11000;50.360;7.582;2022-11-13T07:44:46;16.77;;;10.37;;
21677;SDS011;11000;50.360;7.582;2022-11-13T07:47:06;18.17;;;9.00;;
21677;SDS011;11000;50.360;7.582;2022-11-13T07:49:26;28.80;;;10.07;;
21677;SDS011;11000;50.360;7.582;2022-11-13T07:51:47;21.73;;;10.00;;
21677;SDS011;11000;50.360;7.582;2022-11-13T07:54:07;37.33;;;10.77;;
21677;SDS011;11000;50.360;7.582;2022-11-13T07:56:28;23.67;;;10.77;;
21677;SDS011;11000;50.360;7.582;2022-11-13T07:58:49;31.77;;;10.03;;
21677;SDS011;11000;50.360;7.582;2022-11-13T08:01:09;17.53;;;10.10;;
21677;SDS011;11000;50.360;7.582;2022-11-13T08:03:30;17.27;;;9.97;;
21677;SDS011;11000;50.360;7.582;2022-11-13T08:05:51;33.73;;;9.40;;
21677;SDS011;11000;50.360;7.582;2022-11-13T08:08:13;28.37;;;10.47;;
21677;SDS011;11000;50.360;7.582;2022-11-13T08:10:34;14.27;;;9.63;;
21677;SDS011;11000;50.360;7.582;2022-11-13T08:13:02;15.53;;;10.47;;
21677;SDS011;11000;50.360;7.582;2022-11-13T08:15:25;14.73;;;9.60;;
21677;SDS011;11000;50.360;7.582;2022-11-13T08:17:51;14.73;;;9.53;;
21677;SDS011;11000;50.360;7.582;2022-11-13T08:20:15;14.10;;;9.53;;
21677;SDS011;11000;50.360;7.582;2022-11-13T08:22:36;15.60;;;7.80;;
21677;SDS011;11000;50.360;7.582;2022-11-13T08:24:56;22.30;;;10.33;;
21677;SDS011;11000;50.360;7.582;2022-11-13T08:27:17;12.73;;;8.00;;
21677;SDS011;11000;50.360;7.582;2022-11-13T08:29:37;13.10;;;8.57;;
21677;SDS011;11000;50.360;7.582;2022-11-13T08:31:58;13.83;;;9.07;;
21677;SDS011;11000;50.360;7.582;2022-11-13T08:34:18;12.00;;;8.63;;
21677;SDS011;11000;50.360;7.582;2022-11-13T08:36:39;22.17;;;10.20;;
21677;SDS011;11000;50.360;7.582;2022-11-13T08:38:59;19.13;;;9.30;;
21677;SDS011;11000;50.360;7.582;2022-11-13T08:41:20;12.00;;;8.40;;
21677;SDS011;11000;50.360;7.582;2022-11-13T08:43:40;15.80;;;9.30;;
21677;SDS011;11000;50.360;7.582;2022-11-13T08:46:01;21.77;;;9.40;;
21677;SDS011;11000;50.360;7.582;2022-11-13T08:48:21;25.60;;;9.67;;
21677;SDS011;11000;50.360;7.582;2022-11-13T08:50:43;15.37;;;10.00;;
21677;SDS011;11000;50.360;7.582;2022-11-13T08:53:04;16.67;;;10.27;;
21677;SDS011;11000;50.360;7.582;2022-11-13T08:55:24;14.30;;;9.73;;
21677;SDS011;11000;50.360;7.582;2022-11-13T08:57:46;16.90;;;10.63;;
21677;SDS011;11000;50.360;7.582;2022-11-13T09:00:06;16.43;;;10.87;;
21677;SDS011;11000;50.360;7.582;2022-11-13T09:02:27;19.67;;;11.77;;
21677;SDS011;11000;50.360;7.582;2022-11-13T09:04:48;16.67;;;9.77;;
21677;SDS011;11000;50.360;7.582;2022-11-13T09:07:08;21.47;;;11.80;;
21677;SDS011;11000;50.360;7.582;2022-11-13T09:09:30;21.47;;;12.40;;
21677;SDS011;11000;50.360;7.582;2022-11-13T09:11:50;27.20;;;11.23;;
21677;SDS011;11000;50.360;7.582;2022-11-13T09:14:11;18.30;;;11.27;;
21677;SDS011;11000;50.360;7.582;2022-11-13T09:16:32;19.17;;;11.63;;
21677;SDS011;11000;50.360;7.582;2022-11-13T09:18:52;20.10;;;12.37;;
21677;SDS011;11000;50.360;7.582;2022-11-13T09:21:13;18.50;;;11.83;;
21677;SDS011;11000;50.360;7.582;2022-11-13T09:23:33;16.27;;;10.87;;
21677;SDS011;11000;50.360;7.582;2022-11-13T09:25:55;17.03;;;10.90;;
21677;SDS011;11000;50.360;7.582;2022-11-13T09:28:16;14.90;;;10.47;;
21677;SDS011;11000;50.360;7.582;2022-11-13T09:30:37;16.87;;;11.37;;
21677;SDS011;11000;50.360;7.582;2022-11-13T09:32:59;14.27;;;10.40;;
21677;SDS011;11000;50.360;7.582;2022-11-13T09:35:20;16.47;;;10.37;;
21677;SDS011;11000;50.360;7.582;2022-11-13T09:37:53;16.00;;;10.60;;
21677;SDS011;11000;50.360;7.582;2022-11-13T09:40:15;16.50;;;11.53;;
21677;SDS011;11000;50.360;7.582;2022-11-13T09:42:46;17.40;;;11.47;;
21677;SDS011;11000;50.360;7.582;2022-11-13T09:45:07;16.17;;;12.00;;
21677;SDS011;11000;50.360;7.582;2022-11-13T09:47:34;17.87;;;11.97;;
21677;SDS011;11000;50.360;7.582;2022-11-13T09:50:03;17.07;;;11.07;;
21677;SDS011;11000;50.360;7.582;2022-11-13T09:52:31;15.77;;;10.83;;
21677;SDS011;11000;50.360;7.582;2022-11-13T09:54:57;17.40;;;11.57;;
21677;SDS011;11000;50.360;7.582;2022-11-13T09:57:30;17.67;;;11.10;;
21677;SDS011;11000;50.360;7.582;2022-11-13T10:00:11;15.93;;;9.90;;
21677;SDS011;11000;50.360;7.582;2022-11-13T10:05:52;15.80;;;10.10;;
21677;SDS011;11000;50.360;7.582;2022-11-13T10:08:25;14.43;;;9.77;;
21677;SDS011;11000;50.360;7.582;2022-11-13T10:13:31;15.37;;;10.67;;
21677;SDS011;11000;50.360;7.582;2022-11-13T10:18:36;15.00;;;10.13;;
21677;SDS011;11000;50.360;7.582;2022-11-13T10:23:48;11.43;;;9.30;;
21677;SDS011;11000;50.360;7.582;2022-11-13T10:26:20;13.23;;;9.47;;
21677;SDS011;11000;50.360;7.582;2022-11-13T10:28:43;14.87;;;10.73;;
21677;SDS011;11000;50.360;7.582;2022-11-13T10:31:04;13.53;;;10.00;;
21677;SDS011;11000;50.360;7.582;2022-11-13T10:33:25;14.43;;;9.90;;
21677;SDS011;11000;50.360;7.582;2022-11-13T10:35:54;14.23;;;9.77;;
21677;SDS011;11000;50.360;7.582;2022-11-13T10:38:26;12.93;;;10.20;;
21677;SDS011;11000;50.360;7.582;2022-11-13T10:40:49;13.33;;;9.83;;
21677;SDS011;11000;50.360;7.582;2022-11-13T10:45:34;14.30;;;11.03;;
21677;SDS011;11000;50.360;7.582;2022-11-13T10:47:54;16.37;;;11.20;;
21677;SDS011;11000;50.360;7.582;2022-11-13T10:50:25;13.93;;;10.63;;
21677;SDS011;11000;50.360;7.582;2022-11-13T10:52:48;15.07;;;11.10;;
21677;SDS011;11000;50.360;7.582;2022-11-13T10:55:20;14.50;;;11.53;;
21677;SDS011;11000;50.360;7.582;2022-11-13T10:57:57;16.60;;;11.57;;
21677;SDS011;11000;50.360;7.582;2022-11-13T11:02:46;15.93;;;11.30;;
21677;SDS011;11000;50.360;7.582;2022-11-13T11:05:18;15.07;;;11.70;;
21677;SDS011;11000;50.360;7.582;2022-11-13T11:07:41;14.43;;;10.73;;
21677;SDS011;11000;50.360;7.582;2022-11-13T11:10:01;13.53;;;9.90;;
21677;SDS011;11000;50.360;7.582;2022-11-13T11:12:23;12.00;;;9.73;;
21677;SDS011;11000;50.360;7.582;2022-11-13T11:17:20;12.60;;;9.97;;
21677;SDS011;11000;50.360;7.582;2022-11-13T11:19:49;12.87;;;10.60;;
21677;SDS011;11000;50.360;7.582;2022-11-13T11:22:17;13.53;;;10.57;;
21677;SDS011;11000;50.360;7.582;2022-11-13T11:24:42;12.27;;;10.03;;
21677;SDS011;11000;50.360;7.582;2022-11-13T11:27:21;13.17;;;9.33;;
21677;SDS011;11000;50.360;7.582;2022-11-13T11:29:50;11.40;;;9.63;;
21677;SDS011;11000;50.360;7.582;2022-11-13T11:32:26;15.93;;;11.93;;
21677;SDS011;11000;50.360;7.582;2022-11-13T11:34:55;13.93;;;10.67;;
21677;SDS011;11000;50.360;7.582;2022-11-13T11:37:38;17.90;;;11.57;;
21677;SDS011;11000;50.360;7.582;2022-11-13T11:42:50;16.33;;;11.80;;
21677;SDS011;11000;50.360;7.582;2022-11-13T11:47:45;13.90;;;11.00;;
21677;SDS011;11000;50.360;7.582;2022-11-13T11:50:13;15.73;;;11.17;;
21677;SDS011;11000;50.360;7.582;2022-11-13T11:52:41;13.20;;;10.33;;
21677;SDS011;11000;50.360;7.582;2022-11-13T12:00:35;14.07;;;11.33;;
21677;SDS011;11000;50.360;7.582;2022-11-13T12:06:11;12.70;;;10.97;;
21677;SDS011;11000;50.360;7.582;2022-11-13T12:08:47;14.20;;;11.17;;
21677;SDS011;11000;50.360;7.582;2022-11-13T12:11:29;14.43;;;11.10;;
21677;SDS011;11000;50.360;7.582;2022-11-13T12:13:56;12.10;;;9.93;;
21677;SDS011;11000;50.360;7.582;2022-11-13T12:19:02;12.53;;;10.90;;
21677;SDS011;11000;50.360;7.582;2022-11-13T12:27:12;12.90;;;10.47;;
21677;SDS011;11000;50.360;7.582;2022-11-13T12:29:53;15.23;;;11.47;;
21677;SDS011;11000;50.360;7.582;2022-11-13T12:32:29;12.20;;;10.20;;
21677;SDS011;11000;50.360;7.582;2022-11-13T12:35:10;13.50;;;10.23;;
21677;SDS011;11000;50.360;7.582;2022-11-13T12:42:51;13.87;;;10.47;;
21677;SDS011;11000;50.360;7.582;2022-11-13T12:48:06;13.93;;;10.60;;
21677;SDS011;11000;50.360;7.582;2022-11-13T12:50:40;16.10;;;11.27;;
21677;SDS011;11000;50.360;7.582;2022-11-13T12:53:01;13.50;;;11.00;;
21677;SDS011;11000;50.360;7.582;2022-11-13T12:55:29;14.63;;;10.93;;
21677;SDS011;11000;50.360;7.582;2022-11-13T12:57:53;11.00;;;9.80;;
21677;SDS011;11000;50.360;7.582;2022-11-13T13:11:14;12.57;;;10.47;;
21677;SDS011;11000;50.360;7.582;2022-11-13T13:13:41;12.37;;;9.77;;
21677;SDS011;11000;50.360;7.582;2022-11-13T13:16:06;12.80;;;10.00;;
21677;SDS011;11000;50.360;7.582;2022-11-13T13:18:29;10.50;;;9.40;;
21677;SDS011;11000;50.360;7.582;2022-11-13T13:21:13;11.57;;;9.43;;
21677;SDS011;11000;50.360;7.582;2022-11-13T13:23:35;15.40;;;8.67;;
21677;SDS011;11000;50.360;7.582;2022-11-13T13:28:38;9.93;;;7.50;;
21677;SDS011;11000;50.360;7.582;2022-11-13T13:31:02;9.97;;;8.53;;
21677;SDS011;11000;50.360;7.582;2022-11-13T13:33:43;9.17;;;8.13;;
21677;SDS011;11000;50.360;7.582;2022-11-13T13:36:34;9.40;;;8.33;;
21677;SDS011;11000;50.360;7.582;2022-11-13T13:39:02;10.23;;;9.20;;
21677;SDS011;11000;50.360;7.582;2022-11-13T13:44:22;10.40;;;9.07;;
21677;SDS011;11000;50.360;7.582;2022-11-13T13:46:55;10.67;;;8.40;;
21677;SDS011;11000;50.360;7.582;2022-11-13T13:49:17;10.83;;;8.50;;
21677;SDS011;11000;50.360;7.582;2022-11-13T13:51:58;10.70;;;9.00;;
21677;SDS011;11000;50.360;7.582;2022-11-13T13:54:26;9.90;;;7.87;;
21677;SDS011;11000;50.360;7.582;2022-11-13T13:56:49;9.00;;;8.10;;
21677;SDS011;11000;50.360;7.582;2022-11-13T13:59:14;10.63;;;9.00;;
21677;SDS011;11000;50.360;7.582;2022-11-13T14:01:37;9.73;;;7.97;;
21677;SDS011;11000;50.360;7.582;2022-11-13T14:04:11;9.60;;;8.33;;
21677;SDS011;11000;50.360;7.582;2022-11-13T14:06:45;8.47;;;6.73;;
21677;SDS011;11000;50.360;7.582;2022-11-13T14:09:16;8.87;;;7.07;;
21677;SDS011;11000;50.360;7.582;2022-11-13T14:11:43;7.87;;;6.77;;
21677;SDS011;11000;50.360;7.582;2022-11-13T14:14:15;9.73;;;7.67;;
21677;SDS011;11000;50.360;7.582;2022-11-13T14:16:50;8.10;;;7.10;;
21677;SDS011;11000;50.360;7.582;2022-11-13T14:19:12;8.93;;;6.83;;
21677;SDS011;11000;50.360;7.582;2022-11-13T14:21:33;9.20;;;7.63;;
21677;SDS011;11000;50.360;7.582;2022-11-13T14:23:53;8.87;;;7.30;;
21677;SDS011;11000;50.360;7.582;2022-11-13T14:26:15;9.10;;;7.27;;
21677;SDS011;11000;50.360;7.582;2022-11-13T14:29:14;7.53;;;6.73;;
21677;SDS011;11000;50.360;7.582;2022-11-13T14:31:28;8.73;;;6.83;;
21677;SDS011;11000;50.360;7.582;2022-11-13T14:33:51;9.00;;;7.30;;
21677;SDS011;11000;50.360;7.582;2022-11-13T14:36:12;9.27;;;6.97;;
21677;SDS011;11000;50.360;7.582;2022-11-13T14:38:34;7.77;;;6.93;;
21677;SDS011;11000;50.360;7.582;2022-11-13T14:40:58;7.40;;;6.60;;
21677;SDS011;11000;50.360;7.582;2022-11-13T14:43:21;8.43;;;7.13;;
21677;SDS011;11000;50.360;7.582;2022-11-13T14:45:51;8.87;;;7.10;;
21677;SDS011;11000;50.360;7.582;2022-11-13T14:48:27;8.43;;;7.53;;
21677;SDS011;11000;50.360;7.582;2022-11-13T14:50:50;7.73;;;6.50;;
21677;SDS011;11000;50.360;7.582;2022-11-13T14:53:29;8.13;;;7.20;;
21677;SDS011;11000;50.360;7.582;2022-11-13T14:55:59;8.53;;;7.20;;
21677;SDS011;11000;50.360;7.582;2022-11-13T14:58:25;7.60;;;6.80;;
21677;SDS011;11000;50.360;7.582;2022-11-13T15:00:47;7.87;;;6.90;;
21677;SDS011;11000;50.360;7.582;2022-11-13T15:03:08;7.27;;;6.57;;
21677;SDS011;11000;50.360;7.582;2022-11-13T15:05:28;8.67;;;7.43;;
21677;SDS011;11000;50.360;7.582;2022-11-13T15:07:49;8.93;;;7.27;;
21677;SDS011;11000;50.360;7.582;2022-11-13T15:10:11;10.53;;;8.07;;
21677;SDS011;11000;50.360;7.582;2022-11-13T15:12:35;9.50;;;8.20;;
21677;SDS011;11000;50.360;7.582;2022-11-13T15:14:55;10.33;;;7.97;;
21677;SDS011;11000;50.360;7.582;2022-11-13T15:17:19;9.87;;;8.37;;